createdAt,value
2017-10-31T00:00:05.075Z,6.60
2017-10-31T00:02:32.535Z,6.60
2017-10-31T00:05:00.020Z,6.70
2017-10-31T00:07:27.475Z,6.70
2017-10-31T00:09:54.959Z,6.80
2017-10-31T00:12:22.441Z,6.80
2017-10-31T00:14:49.929Z,6.90
2017-10-31T00:17:17.395Z,6.80
2017-10-31T00:19:44.891Z,6.80
2017-10-31T00:22:12.355Z,6.80
2017-10-31T00:24:39.830Z,6.80
2017-10-31T00:27:07.315Z,6.80
2017-10-31T00:29:34.788Z,6.90
2017-10-31T00:32:03.040Z,6.80
2017-10-31T00:34:30.508Z,6.90
2017-10-31T00:36:57.979Z,6.90
2017-10-31T00:39:26.225Z,7.00
2017-10-31T00:41:53.684Z,6.90
2017-10-31T00:44:21.164Z,7.00
2017-10-31T00:46:48.615Z,7.00
2017-10-31T00:49:16.108Z,7.00
2017-10-31T00:51:43.600Z,7.10
2017-10-31T00:54:11.051Z,7.10
2017-10-31T00:56:38.532Z,7.10
2017-10-31T00:59:05.999Z,7.10
2017-10-31T01:01:33.466Z,7.00
2017-10-31T01:04:00.947Z,7.00
2017-10-31T01:06:28.420Z,6.90
2017-10-31T01:08:55.883Z,6.90
2017-10-31T01:11:23.381Z,6.90
2017-10-31T01:13:50.846Z,7.00
2017-10-31T01:16:18.331Z,7.00
2017-10-31T01:18:45.807Z,7.00
2017-10-31T01:21:13.302Z,7.10
2017-10-31T01:23:40.771Z,7.20
2017-10-31T01:26:08.231Z,7.20
2017-10-31T01:28:36.488Z,7.10
2017-10-31T01:31:03.971Z,7.10
2017-10-31T01:33:32.212Z,7.10
2017-10-31T01:35:59.677Z,7.10
2017-10-31T01:38:27.151Z,7.20
2017-10-31T01:40:55.399Z,7.30
2017-10-31T01:43:22.895Z,7.30
2017-10-31T01:45:51.123Z,7.30
2017-10-31T01:48:18.583Z,7.20
2017-10-31T01:50:46.063Z,7.20
2017-10-31T01:53:14.310Z,7.20
2017-10-31T01:55:41.778Z,7.20
2017-10-31T01:58:09.243Z,7.20
2017-10-31T02:00:36.747Z,7.20
2017-10-31T02:03:04.211Z,7.20
2017-10-31T02:05:31.671Z,7.20
2017-10-31T02:07:59.144Z,7.20
2017-10-31T02:10:26.608Z,7.30
2017-10-31T02:12:54.088Z,7.30
2017-10-31T02:15:21.557Z,7.30
2017-10-31T02:17:49.800Z,7.30
2017-10-31T02:20:17.273Z,7.30
2017-10-31T02:22:44.756Z,7.40
2017-10-31T02:25:13.014Z,7.40
2017-10-31T02:27:40.488Z,7.30
2017-10-31T02:30:08.716Z,7.30
2017-10-31T02:32:36.198Z,7.20
2017-10-31T02:35:03.680Z,7.30
2017-10-31T02:37:31.143Z,7.30
2017-10-31T02:39:58.623Z,7.30
2017-10-31T02:42:26.088Z,7.20
2017-10-31T02:44:53.560Z,7.10
2017-10-31T02:47:21.027Z,7.20
2017-10-31T02:49:48.510Z,7.20
2017-10-31T02:52:16.749Z,7.20
2017-10-31T02:54:44.220Z,7.30
2017-10-31T02:57:11.711Z,7.20
2017-10-31T02:59:39.194Z,7.30
2017-10-31T03:02:06.674Z,7.20
2017-10-31T03:04:34.147Z,7.30
2017-10-31T03:07:01.629Z,7.30
2017-10-31T03:09:29.872Z,7.30
2017-10-31T03:11:58.831Z,7.20
2017-10-31T03:14:26.291Z,7.20
2017-10-31T03:16:53.767Z,7.30
2017-10-31T03:19:21.228Z,7.30
2017-10-31T03:21:48.707Z,7.30
2017-10-31T03:24:16.164Z,7.20
2017-10-31T03:26:43.634Z,7.20
2017-10-31T03:29:11.872Z,7.20
2017-10-31T03:31:40.859Z,7.20
2017-10-31T03:34:08.320Z,7.20
2017-10-31T03:36:35.788Z,7.20
2017-10-31T03:39:03.269Z,7.20
2017-10-31T03:41:31.519Z,7.30
2017-10-31T03:43:58.978Z,7.20
2017-10-31T03:46:26.447Z,7.30
2017-10-31T03:48:54.686Z,7.40
2017-10-31T03:51:22.157Z,7.40
2017-10-31T03:53:49.630Z,7.50
2017-10-31T03:56:17.884Z,7.40
2017-10-31T03:58:45.358Z,7.40
2017-10-31T04:01:12.830Z,7.50
2017-10-31T04:03:41.072Z,7.50
2017-10-31T04:06:08.571Z,7.50
2017-10-31T04:08:36.835Z,7.40
2017-10-31T04:11:05.079Z,7.50
2017-10-31T04:13:32.551Z,7.40
2017-10-31T04:16:00.051Z,7.50
2017-10-31T04:18:27.513Z,7.50
2017-10-31T04:20:54.970Z,7.40
2017-10-31T04:23:22.445Z,7.40
2017-10-31T04:25:49.908Z,7.50
2017-10-31T04:28:17.394Z,7.50
2017-10-31T04:30:44.870Z,7.50
2017-10-31T04:33:13.103Z,7.50
2017-10-31T04:35:40.592Z,7.50
2017-10-31T04:38:08.819Z,7.50
2017-10-31T04:40:36.313Z,7.50
2017-10-31T04:43:05.288Z,7.50
2017-10-31T04:45:32.772Z,7.50
2017-10-31T04:48:01.003Z,7.60
2017-10-31T04:50:28.494Z,7.50
2017-10-31T04:52:55.975Z,7.60
2017-10-31T04:55:23.459Z,7.60
2017-10-31T04:57:50.939Z,7.50
2017-10-31T05:00:18.412Z,7.60
2017-10-31T05:02:45.883Z,7.50
2017-10-31T05:05:14.130Z,7.40
2017-10-31T05:07:42.351Z,7.40
2017-10-31T05:10:09.832Z,7.30
2017-10-31T05:12:37.307Z,7.30
2017-10-31T05:15:04.791Z,7.30
2017-10-31T05:17:32.252Z,7.40
2017-10-31T05:19:59.735Z,7.40
2017-10-31T05:22:27.978Z,7.40
2017-10-31T05:24:55.438Z,7.40
2017-10-31T05:27:22.903Z,7.50
2017-10-31T05:29:51.156Z,7.50
2017-10-31T05:32:18.624Z,7.40
2017-10-31T05:34:46.107Z,7.40
2017-10-31T05:37:13.580Z,7.40
2017-10-31T05:39:41.072Z,7.40
2017-10-31T05:42:08.529Z,7.40
2017-10-31T05:44:36.007Z,7.40
2017-10-31T05:47:04.254Z,7.40
2017-10-31T05:49:31.731Z,7.50
2017-10-31T05:51:59.199Z,7.50
2017-10-31T05:54:26.679Z,7.50
2017-10-31T05:56:54.162Z,7.50
2017-10-31T05:59:21.659Z,7.40
2017-10-31T06:01:49.127Z,7.50
2017-10-31T06:04:17.358Z,7.40
2017-10-31T06:06:44.830Z,7.40
2017-10-31T06:09:12.299Z,7.40
2017-10-31T06:11:39.775Z,7.40
2017-10-31T06:14:08.003Z,7.40
2017-10-31T06:16:35.479Z,7.30
2017-10-31T06:19:02.963Z,7.40
2017-10-31T06:24:36.638Z,7.40
2017-10-31T06:27:09.751Z,7.50
2017-10-31T06:29:43.063Z,7.50
2017-10-31T06:32:10.536Z,7.50
2017-10-31T06:34:38.798Z,7.50
2017-10-31T06:37:07.028Z,7.50
2017-10-31T06:39:34.591Z,7.50
2017-10-31T06:42:02.067Z,7.50
2017-10-31T06:44:29.533Z,7.60
2017-10-31T06:46:57.019Z,7.60
2017-10-31T06:49:24.495Z,7.60
2017-10-31T06:51:52.067Z,7.70
2017-10-31T06:54:22.991Z,7.70
2017-10-31T06:56:50.451Z,7.70
2017-10-31T06:59:17.932Z,7.70
2017-10-31T07:01:45.392Z,7.70
2017-10-31T07:04:12.888Z,7.70
2017-10-31T07:06:41.123Z,7.70
2017-10-31T07:09:08.595Z,7.70
2017-10-31T07:11:36.071Z,7.70
2017-10-31T07:14:04.312Z,7.80
2017-10-31T07:16:31.790Z,7.70
2017-10-31T07:18:59.260Z,7.70
2017-10-31T07:21:27.515Z,7.80
2017-10-31T07:23:54.979Z,7.80
2017-10-31T07:26:22.451Z,7.80
2017-10-31T07:28:50.699Z,7.80
2017-10-31T07:31:18.733Z,7.80
2017-10-31T07:33:46.243Z,7.90
2017-10-31T07:36:13.705Z,8.00
2017-10-31T07:38:41.955Z,8.00
2017-10-31T07:41:09.424Z,8.00
2017-10-31T07:43:36.894Z,8.00
2017-10-31T07:46:05.143Z,8.10
2017-10-31T07:48:32.631Z,8.00
2017-10-31T07:51:00.875Z,8.10
2017-10-31T07:53:28.344Z,8.10
2017-10-31T07:55:57.343Z,8.10
2017-10-31T07:58:24.802Z,8.10
2017-10-31T08:00:53.035Z,8.20
2017-10-31T08:03:20.519Z,8.10
2017-10-31T08:05:47.987Z,8.10
2017-10-31T08:08:15.489Z,8.20
2017-10-31T08:10:42.942Z,8.20
2017-10-31T08:13:10.423Z,8.20
2017-10-31T08:15:37.907Z,8.30
2017-10-31T08:18:05.383Z,8.30
2017-10-31T08:20:33.614Z,8.40
2017-10-31T08:23:01.100Z,8.40
2017-10-31T08:25:28.587Z,8.50
2017-10-31T08:27:56.824Z,8.60
2017-10-31T08:30:24.291Z,8.60
2017-10-31T08:32:52.531Z,8.80
2017-10-31T08:35:20.011Z,8.80
2017-10-31T08:37:47.500Z,8.90
2017-10-31T08:40:15.736Z,9.10
2017-10-31T08:42:43.217Z,9.10
2017-10-31T08:45:11.447Z,9.30
2017-10-31T08:47:38.915Z,9.20
2017-10-31T08:50:06.395Z,9.30
2017-10-31T08:52:33.869Z,9.30
2017-10-31T08:55:02.134Z,9.30
2017-10-31T08:57:29.594Z,9.30
2017-10-31T08:59:57.810Z,9.20
2017-10-31T09:02:25.288Z,9.20
2017-10-31T09:04:52.756Z,9.30
2017-10-31T09:07:20.242Z,9.50
2017-10-31T09:09:48.483Z,9.60
2017-10-31T09:12:15.963Z,9.60
2017-10-31T09:14:43.451Z,9.60
2017-10-31T09:17:10.902Z,9.70
2017-10-31T09:19:38.393Z,9.80
2017-10-31T09:22:05.866Z,10.20
2017-10-31T09:24:33.372Z,10.10
2017-10-31T09:27:01.600Z,10.30
2017-10-31T09:29:29.079Z,10.30
2017-10-31T09:31:56.534Z,10.20
2017-10-31T09:34:24.004Z,10.10
2017-10-31T09:36:52.261Z,10.00
2017-10-31T09:39:19.739Z,9.90
2017-10-31T09:41:48.007Z,9.90
2017-10-31T09:44:16.251Z,9.70
2017-10-31T09:46:43.711Z,9.60
2017-10-31T09:49:11.199Z,9.60
2017-10-31T09:51:39.429Z,9.90
2017-10-31T09:54:06.912Z,9.90
2017-10-31T09:56:35.135Z,10.20
2017-10-31T09:59:02.615Z,10.20
2017-10-31T10:01:31.057Z,10.80
2017-10-31T10:03:58.527Z,11.10
2017-10-31T10:06:25.991Z,11.20
2017-10-31T10:08:53.479Z,11.30
2017-10-31T10:11:20.955Z,11.40
2017-10-31T10:13:49.910Z,11.00
2017-10-31T10:16:17.419Z,11.00
2017-10-31T10:18:45.659Z,11.10
2017-10-31T10:21:13.124Z,11.10
2017-10-31T10:23:41.368Z,10.90
2017-10-31T10:26:08.841Z,11.00
2017-10-31T10:28:36.328Z,10.70
2017-10-31T10:31:04.555Z,10.60
2017-10-31T10:33:32.051Z,10.60
2017-10-31T10:36:00.295Z,10.80
2017-10-31T10:38:27.767Z,10.70
2017-10-31T10:40:55.244Z,10.80
2017-10-31T10:43:23.479Z,10.90
2017-10-31T10:45:50.966Z,10.90
2017-10-31T10:48:18.432Z,10.90
2017-10-31T10:50:46.694Z,11.00
2017-10-31T10:53:14.927Z,10.90
2017-10-31T10:55:42.404Z,10.90
2017-10-31T10:58:09.888Z,10.90
2017-10-31T11:00:43.102Z,11.40
2017-10-31T11:03:11.332Z,11.60
2017-10-31T11:05:38.809Z,11.60
2017-10-31T11:08:06.304Z,11.60
2017-10-31T11:10:33.764Z,11.60
2017-10-31T11:13:01.235Z,11.90
2017-10-31T11:15:28.725Z,11.30
2017-10-31T11:17:56.192Z,11.20
2017-10-31T11:20:23.683Z,11.10
2017-10-31T11:22:51.151Z,11.10
2017-10-31T11:25:18.620Z,11.10
2017-10-31T11:27:46.100Z,11.10
2017-10-31T11:30:13.568Z,11.20
2017-10-31T11:32:41.836Z,11.40
2017-10-31T11:35:09.289Z,11.40
2017-10-31T11:37:36.771Z,11.50
2017-10-31T11:40:04.243Z,11.50
2017-10-31T11:42:32.467Z,11.50
2017-10-31T11:44:59.945Z,11.50
2017-10-31T11:47:27.424Z,11.20
2017-10-31T11:49:55.668Z,11.40
2017-10-31T11:52:23.140Z,11.40
2017-10-31T11:54:51.410Z,11.50
2017-10-31T11:57:19.643Z,11.30
2017-10-31T11:59:47.131Z,11.20
2017-10-31T12:02:14.600Z,11.30
2017-10-31T12:04:42.062Z,11.20
2017-10-31T12:07:09.548Z,11.20
2017-10-31T12:09:37.024Z,11.30
2017-10-31T12:12:04.509Z,11.40
2017-10-31T12:14:31.963Z,11.30
2017-10-31T12:16:59.444Z,11.20
2017-10-31T12:19:26.910Z,11.20
2017-10-31T12:21:55.150Z,11.20
2017-10-31T12:24:22.634Z,11.20
2017-10-31T12:26:50.860Z,11.10
2017-10-31T12:29:18.355Z,11.10
2017-10-31T12:31:45.812Z,11.10
2017-10-31T12:34:13.315Z,11.20
2017-10-31T12:36:40.773Z,11.20
2017-10-31T12:39:08.247Z,11.30
2017-10-31T12:41:35.741Z,11.30
2017-10-31T12:44:03.212Z,11.20
2017-10-31T12:46:31.480Z,11.10
2017-10-31T12:48:58.940Z,11.10
2017-10-31T12:51:27.194Z,10.80
2017-10-31T12:53:54.664Z,10.80
2017-10-31T12:56:22.139Z,10.80
2017-10-31T12:58:50.395Z,10.60
2017-10-31T13:01:17.862Z,10.60
2017-10-31T13:03:45.339Z,10.60
2017-10-31T13:06:12.799Z,10.70
2017-10-31T13:08:40.293Z,10.70
2017-10-31T13:11:07.755Z,10.70
2017-10-31T13:13:35.249Z,10.80
2017-10-31T13:16:03.471Z,10.80
2017-10-31T13:18:30.949Z,10.80
2017-10-31T13:20:58.433Z,10.80
2017-10-31T13:23:26.679Z,10.80
2017-10-31T13:25:54.160Z,10.80
2017-10-31T13:28:22.359Z,10.90
2017-10-31T13:30:50.327Z,10.90
2017-10-31T13:33:18.552Z,10.90
2017-10-31T13:35:46.875Z,10.80
2017-10-31T13:38:15.809Z,10.90
2017-10-31T13:40:44.351Z,10.90
2017-10-31T13:43:12.848Z,10.90
2017-10-31T13:45:40.341Z,10.90
2017-10-31T13:48:08.067Z,10.80
2017-10-31T13:50:35.644Z,10.90
2017-10-31T13:53:03.107Z,11.00
2017-10-31T13:55:30.596Z,11.00
2017-10-31T13:57:58.097Z,10.90
2017-10-31T14:00:26.468Z,10.90
2017-10-31T14:02:54.863Z,10.90
2017-10-31T14:05:23.122Z,10.90
2017-10-31T14:07:51.283Z,10.90
2017-10-31T14:10:19.574Z,10.80
2017-10-31T14:12:48.599Z,10.80
2017-10-31T14:15:16.109Z,10.70
2017-10-31T14:17:44.336Z,10.70
2017-10-31T14:20:12.456Z,10.70
2017-10-31T14:22:40.014Z,10.60
2017-10-31T14:25:07.480Z,10.60
2017-10-31T14:27:34.949Z,10.50
2017-10-31T14:30:02.435Z,10.50
2017-10-31T14:32:29.904Z,10.40
2017-10-31T14:34:58.168Z,10.30
2017-10-31T14:37:25.660Z,10.30
2017-10-31T14:39:53.891Z,10.30
2017-10-31T14:42:21.393Z,10.30
2017-10-31T14:44:49.648Z,10.30
2017-10-31T14:47:17.874Z,10.30
2017-10-31T14:49:45.359Z,10.30
2017-10-31T14:52:12.827Z,10.30
2017-10-31T14:54:40.312Z,10.30
2017-10-31T14:57:08.571Z,10.30
2017-10-31T14:59:36.047Z,10.30
2017-10-31T15:02:04.295Z,10.30
2017-10-31T15:04:31.768Z,10.30
2017-10-31T15:07:00.005Z,10.30
2017-10-31T15:09:27.499Z,10.30
2017-10-31T15:11:55.732Z,10.30
2017-10-31T15:14:23.206Z,10.30
2017-10-31T15:16:50.687Z,10.30
2017-10-31T15:19:18.919Z,10.30
2017-10-31T15:21:51.039Z,10.30
2017-10-31T15:24:19.307Z,10.30
2017-10-31T15:26:47.539Z,10.20
2017-10-31T15:29:15.026Z,10.20
2017-10-31T15:31:43.275Z,10.20
2017-10-31T15:34:10.738Z,10.20
2017-10-31T15:36:38.223Z,10.30
2017-10-31T15:39:06.472Z,10.30
2017-10-31T15:41:33.956Z,10.30
2017-10-31T15:44:02.186Z,10.20
2017-10-31T15:46:29.730Z,10.20
2017-10-31T15:48:57.200Z,10.20
2017-10-31T15:51:24.663Z,10.20
2017-10-31T15:53:52.141Z,10.20
2017-10-31T15:56:19.627Z,10.20
2017-10-31T15:58:47.869Z,10.20
2017-10-31T16:01:16.839Z,10.10
2017-10-31T16:03:44.324Z,10.10
2017-10-31T16:06:12.570Z,10.10
2017-10-31T16:08:40.084Z,10.10
2017-10-31T16:11:08.315Z,10.10
2017-10-31T16:13:35.789Z,10.10
2017-10-31T16:16:03.276Z,10.00
2017-10-31T16:18:31.528Z,10.00
2017-10-31T16:20:59.756Z,10.00
2017-10-31T16:23:27.272Z,10.00
2017-10-31T16:25:55.505Z,10.00
2017-10-31T16:28:22.986Z,10.00
2017-10-31T16:30:50.465Z,10.00
2017-10-31T16:33:18.703Z,10.00
2017-10-31T16:35:46.183Z,10.00
2017-10-31T16:38:14.431Z,10.00
2017-10-31T16:40:43.419Z,10.00
2017-10-31T16:43:10.902Z,10.00
2017-10-31T16:45:38.367Z,9.90
2017-10-31T16:48:06.635Z,10.00
2017-10-31T16:50:34.112Z,10.00
2017-10-31T16:53:02.351Z,10.00
2017-10-31T16:55:29.824Z,10.00
2017-10-31T16:57:58.067Z,10.00
2017-10-31T17:00:25.551Z,10.00
2017-10-31T17:02:53.023Z,10.00
2017-10-31T17:05:21.272Z,10.00
2017-10-31T17:07:48.767Z,10.00
2017-10-31T17:10:16.237Z,10.00
2017-10-31T17:12:43.746Z,10.00
2017-10-31T17:15:12.715Z,10.00
2017-10-31T17:17:40.185Z,10.00
2017-10-31T17:20:07.674Z,10.00
2017-10-31T17:22:35.903Z,10.00
2017-10-31T17:25:03.384Z,10.00
2017-10-31T17:27:30.851Z,10.00
2017-10-31T17:29:59.091Z,10.10
2017-10-31T17:32:26.565Z,10.10
2017-10-31T17:34:54.047Z,10.00
2017-10-31T17:37:22.298Z,10.10
2017-10-31T17:39:49.764Z,10.10
2017-10-31T17:42:17.256Z,10.10
2017-10-31T17:44:44.721Z,10.10
2017-10-31T17:47:12.208Z,10.10
2017-10-31T17:49:39.696Z,10.10
2017-10-31T17:52:07.928Z,10.20
2017-10-31T17:54:35.411Z,10.20
2017-10-31T17:57:02.895Z,10.20
2017-10-31T17:59:31.123Z,10.10
2017-10-31T18:01:58.616Z,10.10
2017-10-31T18:04:26.103Z,10.10
2017-10-31T18:06:53.587Z,10.20
2017-10-31T18:09:21.059Z,10.10
2017-10-31T18:11:48.535Z,10.00
2017-10-31T18:14:16.007Z,9.90
2017-10-31T18:16:44.233Z,9.80
2017-10-31T18:19:11.687Z,9.80
2017-10-31T18:21:39.164Z,9.80
2017-10-31T18:24:06.634Z,9.80
2017-10-31T18:26:34.867Z,9.70
2017-10-31T18:29:02.341Z,9.70
2017-10-31T18:31:29.806Z,9.70
2017-10-31T18:33:57.290Z,9.70
2017-10-31T18:36:25.514Z,9.80
2017-10-31T18:38:52.996Z,9.70
2017-10-31T18:41:20.470Z,9.80
2017-10-31T18:43:47.969Z,9.70
2017-10-31T18:46:15.419Z,9.70
2017-10-31T18:48:42.923Z,9.80
2017-10-31T18:51:10.396Z,9.80
2017-10-31T18:53:37.859Z,9.80
2017-10-31T18:56:06.132Z,9.80
2017-10-31T18:58:33.583Z,9.80
2017-10-31T19:01:01.083Z,9.80
2017-10-31T19:03:28.548Z,9.80
2017-10-31T19:05:56.014Z,9.80
2017-10-31T19:08:23.506Z,9.80
2017-10-31T19:10:50.978Z,9.80
2017-10-31T19:13:19.224Z,9.90
2017-10-31T19:15:46.692Z,9.80
2017-10-31T19:18:14.172Z,9.80
2017-10-31T19:20:41.674Z,9.80
2017-10-31T19:23:09.170Z,9.80
2017-10-31T19:25:37.404Z,9.70
2017-10-31T19:28:04.869Z,9.70
2017-10-31T19:30:32.359Z,9.70
2017-10-31T19:32:59.840Z,9.70
2017-10-31T19:35:27.417Z,9.70
2017-10-31T19:37:54.892Z,9.70
2017-10-31T19:40:22.364Z,9.70
2017-10-31T19:42:49.859Z,9.70
2017-10-31T19:45:18.109Z,9.70
2017-10-31T19:47:45.597Z,9.70
2017-10-31T19:50:13.812Z,9.70
2017-10-31T19:52:41.296Z,9.70
2017-10-31T19:55:08.808Z,9.80
2017-10-31T19:57:36.277Z,9.80
2017-10-31T20:00:03.744Z,9.70
2017-10-31T20:02:31.220Z,9.80
2017-10-31T20:04:58.696Z,9.70
2017-10-31T20:07:26.914Z,9.80
2017-10-31T20:09:54.413Z,9.80
2017-10-31T20:12:21.886Z,9.80
2017-10-31T20:14:50.143Z,9.70
2017-10-31T20:17:17.601Z,9.70
2017-10-31T20:19:45.838Z,9.80
2017-10-31T20:22:13.331Z,9.80
2017-10-31T20:24:41.575Z,9.80
2017-10-31T20:27:09.039Z,9.80
2017-10-31T20:29:36.508Z,9.80
2017-10-31T20:32:03.987Z,9.80
2017-10-31T20:34:32.962Z,9.80
2017-10-31T20:37:00.447Z,9.80
2017-10-31T20:39:28.698Z,9.80
2017-10-31T20:41:57.675Z,9.80
2017-10-31T20:44:25.148Z,9.80
2017-10-31T20:46:52.637Z,9.80
2017-10-31T20:49:20.885Z,9.90
2017-10-31T20:51:48.355Z,9.90
2017-10-31T20:54:16.588Z,9.90
2017-10-31T20:56:44.046Z,9.90
2017-10-31T20:59:11.527Z,9.90
2017-10-31T21:01:38.999Z,9.90
2017-10-31T21:04:07.232Z,9.90
2017-10-31T21:06:34.712Z,9.90
2017-10-31T21:09:02.190Z,9.90
2017-10-31T21:11:30.412Z,9.90
2017-10-31T21:13:57.887Z,9.90
2017-10-31T21:16:25.374Z,9.90
2017-10-31T21:18:53.586Z,9.90
2017-10-31T21:21:21.071Z,9.80
2017-10-31T21:23:48.531Z,9.90
2017-10-31T21:26:15.998Z,9.90
2017-10-31T21:28:44.979Z,9.90
2017-10-31T21:31:12.510Z,9.90
2017-10-31T21:33:39.993Z,10.00
2017-10-31T21:36:07.459Z,10.00
2017-10-31T21:38:36.459Z,9.90
2017-10-31T21:41:03.931Z,10.00
2017-10-31T21:43:32.185Z,9.90
2017-10-31T21:45:59.639Z,9.90
2017-10-31T21:48:27.116Z,9.90
2017-10-31T21:50:55.367Z,10.00
2017-10-31T21:53:23.612Z,10.00
2017-10-31T21:55:51.094Z,10.00
2017-10-31T21:58:18.577Z,10.00
2017-10-31T22:00:46.035Z,10.00
2017-10-31T22:03:14.303Z,10.00
2017-10-31T22:05:41.811Z,10.00
2017-10-31T22:08:09.305Z,10.00
2017-10-31T22:10:36.787Z,10.00
2017-10-31T22:13:05.045Z,10.00
2017-10-31T22:15:32.526Z,10.00
2017-10-31T22:18:00.773Z,9.90
2017-10-31T22:20:29.910Z,9.90
2017-10-31T22:22:57.363Z,9.90
2017-10-31T22:25:24.818Z,9.90
2017-10-31T22:27:52.296Z,9.80
2017-10-31T22:30:19.773Z,9.70
2017-10-31T22:32:47.243Z,9.70
2017-10-31T22:35:15.471Z,9.70
2017-10-31T22:37:42.940Z,9.70
2017-10-31T22:40:10.411Z,9.60
2017-10-31T22:42:37.890Z,9.70
2017-10-31T22:45:05.377Z,9.70
2017-10-31T22:47:33.612Z,9.70
2017-10-31T22:50:01.067Z,9.60
2017-10-31T22:52:28.544Z,9.60
2017-10-31T22:54:56.792Z,9.60
2017-10-31T22:57:24.268Z,9.50
2017-10-31T22:59:51.722Z,9.60
2017-10-31T23:02:19.207Z,9.60
2017-10-31T23:04:47.434Z,9.50
2017-10-31T23:07:14.887Z,9.50
2017-10-31T23:09:42.383Z,9.50
2017-10-31T23:12:10.609Z,9.50
2017-10-31T23:14:38.074Z,9.50
2017-10-31T23:17:05.558Z,9.50
2017-10-31T23:19:33.780Z,9.40
2017-10-31T23:22:01.359Z,9.40
2017-10-31T23:24:28.808Z,9.40
2017-10-31T23:26:56.279Z,9.40
2017-10-31T23:29:23.735Z,9.40
2017-10-31T23:31:51.196Z,9.40
2017-10-31T23:34:18.699Z,9.40
2017-10-31T23:36:46.938Z,9.40
2017-10-31T23:39:14.416Z,9.40
2017-10-31T23:41:42.638Z,9.40
2017-10-31T23:44:10.111Z,9.40
2017-10-31T23:46:37.575Z,9.50
2017-10-31T23:49:05.052Z,9.40
2017-10-31T23:51:32.507Z,9.50
2017-10-31T23:54:00.743Z,9.50
2017-10-31T23:56:28.203Z,9.50
2017-10-31T23:58:55.659Z,9.50
